Time;durP1;ratioP1;P1;durP2;ratioP2;P2;SDS_P1;SDS_P2;PMS_P1;PMS_P2;Temp;Humidity;BMP_temperature;BMP_pressure;BME280_temperature;BME280_humidity;BME280_pressure;Samples;Min_cycle;Max_cycle;Signal;HPM_P1;HPM_P2
2023/07/03 00:01:44;;;;;;;10.10;3.17;;;19.40;80.70;;;;;;10433183;28;20029;-66
2023/07/03 00:06:45;;;;;;;7.22;3.30;;;19.30;80.70;;;;;;10436708;28;20404;-66
2023/07/03 00:11:46;;;;;;;10.98;3.50;;;19.40;80.90;;;;;;10433298;28;20017;-66
2023/07/03 00:16:46;;;;;;;6.60;3.10;;;19.30;80.90;;;;;;10449908;28;20492;-66
2023/07/03 00:21:48;;;;;;;10.90;3.53;;;19.30;81.00;;;;;;10450722;28;20031;-67
2023/07/03 00:26:48;;;;;;;7.57;3.05;;;19.30;81.00;;;;;;10439338;28;20029;-66
2023/07/03 00:31:49;;;;;;;5.93;2.83;;;19.30;81.10;;;;;;10442826;28;20492;-66
2023/07/03 00:36:50;;;;;;;10.13;2.85;;;19.30;81.10;;;;;;10446338;28;20396;-65
2023/07/03 00:41:50;;;;;;;8.07;3.63;;;19.20;81.20;;;;;;10444698;28;20029;-66
2023/07/03 00:46:51;;;;;;;8.20;3.10;;;19.30;81.30;;;;;;10437940;28;20021;-67
2023/07/03 00:51:55;;;;;;;7.72;3.47;;;19.30;81.30;;;;;;10439034;28;20203;-66
2023/07/03 00:56:56;;;;;;;6.55;2.75;;;19.20;81.40;;;;;;10432485;28;20025;-65
2023/07/03 01:01:57;;;;;;;6.55;2.92;;;19.20;81.50;;;;;;10433427;28;20036;-64
2023/07/03 01:07:01;;;;;;;6.53;2.40;;;19.20;81.50;;;;;;10446346;28;20059;-66
2023/07/03 01:12:04;;;;;;;7.75;3.00;;;19.20;81.60;;;;;;10441524;28;20022;-66
2023/07/03 01:17:09;;;;;;;9.80;2.80;;;19.20;81.70;;;;;;10445107;28;20482;-66
2023/07/03 01:22:26;;;;;;;7.68;3.08;;;19.20;81.80;;;;;;10446613;28;20048;-66
2023/07/03 01:27:33;;;;;;;7.07;2.95;;;19.20;81.90;;;;;;10439590;28;20140;-64
2023/07/03 01:32:35;;;;;;;9.70;2.95;;;19.20;81.90;;;;;;10438905;28;20017;-66
2023/07/03 01:37:39;;;;;;;9.00;3.53;;;19.20;81.90;;;;;;10445585;28;20055;-67
2023/07/03 01:42:41;;;;;;;11.32;3.33;;;19.10;82.00;;;;;;10447243;28;20385;-65
2023/07/03 01:47:41;;;;;;;10.48;3.50;;;19.10;82.00;;;;;;10456873;28;20499;-65
2023/07/03 01:53:01;;;;;;;7.25;2.63;;;19.10;82.00;;;;;;10452437;28;20021;-66
2023/07/03 01:58:10;;;;;;;11.40;2.90;;;19.10;82.20;;;;;;10447664;28;20444;-66
2023/07/03 02:03:31;;;;;;;10.18;3.13;;;19.10;82.20;;;;;;10450023;28;20437;-68
2023/07/03 02:08:32;;;;;;;7.35;2.63;;;19.10;82.40;;;;;;10448192;28;20032;-67
2023/07/03 02:13:32;;;;;;;7.85;2.80;;;19.10;82.30;;;;;;10450233;28;20048;-68
2023/07/03 02:18:34;;;;;;;8.63;3.40;;;19.00;82.40;;;;;;10454273;28;20445;-67
2023/07/03 02:23:35;;;;;;;9.63;2.75;;;18.90;82.30;;;;;;10460906;28;20044;-67
2023/07/03 02:28:36;;;;;;;6.80;3.55;;;19.10;82.50;;;;;;10442679;28;20088;-67
2023/07/03 02:33:36;;;;;;;8.23;2.90;;;19.00;82.50;;;;;;10445823;28;20484;-67
2023/07/03 02:38:37;;;;;;;8.18;3.10;;;19.00;82.70;;;;;;10457953;28;20028;-67
2023/07/03 02:43:38;;;;;;;11.27;3.28;;;19.00;82.70;;;;;;10457886;28;20062;-67
2023/07/03 02:48:39;;;;;;;9.77;3.63;;;19.00;82.80;;;;;;10441476;28;20503;-67
2023/07/03 02:53:41;;;;;;;7.68;3.10;;;19.00;82.80;;;;;;10447573;28;20111;-67
2023/07/03 02:58:42;;;;;;;8.68;2.60;;;19.00;82.90;;;;;;10448390;28;20013;-67
2023/07/03 03:03:44;;;;;;;8.55;2.67;;;19.00;83.00;;;;;;10450698;28;20029;-67
2023/07/03 03:08:45;;;;;;;5.65;2.38;;;19.00;83.10;;;;;;10453771;28;20092;-67
2023/07/03 03:13:46;;;;;;;9.80;3.20;;;19.00;83.10;;;;;;10450373;28;20029;-67
2023/07/03 03:18:47;;;;;;;8.55;2.90;;;19.00;83.10;;;;;;10453060;28;20028;-67
2023/07/03 03:23:48;;;;;;;8.57;2.72;;;18.90;83.10;;;;;;10454696;28;20029;-67
2023/07/03 03:28:48;;;;;;;6.10;2.33;;;18.90;83.00;;;;;;10447822;28;20079;-67
2023/07/03 03:33:49;;;;;;;6.53;2.30;;;18.90;82.80;;;;;;10443676;28;20021;-67
2023/07/03 03:38:49;;;;;;;6.03;2.30;;;18.90;82.70;;;;;;10442700;28;20541;-67
2023/07/03 03:43:50;;;;;;;5.35;2.00;;;18.90;82.60;;;;;;10452492;28;20021;-67
2023/07/03 03:48:51;;;;;;;8.55;2.15;;;18.90;82.50;;;;;;10455370;28;20028;-67
2023/07/03 03:53:52;;;;;;;4.55;1.92;;;18.90;82.40;;;;;;10458105;28;20020;-67
2023/07/03 03:58:52;;;;;;;7.80;1.90;;;18.90;82.30;;;;;;10459615;28;20013;-67
2023/07/03 04:03:53;;;;;;;7.10;1.88;;;18.80;82.10;;;;;;10443293;28;20214;-67
2023/07/03 04:08:58;;;;;;;5.47;1.77;;;18.80;82.00;;;;;;10432123;28;20503;-67
2023/07/03 04:13:59;;;;;;;6.30;2.10;;;18.80;81.90;;;;;;10433206;28;20028;-67
2023/07/03 04:19:00;;;;;;;5.10;1.80;;;18.80;81.80;;;;;;10439834;28;20025;-67
2023/07/03 04:24:01;;;;;;;5.68;1.83;;;18.80;81.70;;;;;;10438916;28;20437;-67
2023/07/03 04:29:08;;;;;;;5.18;1.65;;;18.80;81.60;;;;;;10438930;28;20033;-67
2023/07/03 04:34:08;;;;;;;6.25;1.67;;;18.80;81.40;;;;;;10443143;28;20108;-67
2023/07/03 04:39:09;;;;;;;4.70;1.40;;;18.80;81.40;;;;;;10440890;28;20536;-67
2023/07/03 04:44:12;;;;;;;5.40;1.40;;;18.80;81.30;;;;;;10437009;28;20373;-68
2023/07/03 04:49:12;;;;;;;3.60;1.67;;;18.70;81.20;;;;;;10441463;28;20052;-67
2023/07/03 04:54:13;;;;;;;4.70;1.65;;;18.70;81.10;;;;;;10435854;28;20112;-67
2023/07/03 04:59:15;;;;;;;3.13;1.42;;;18.70;81.10;;;;;;10443552;28;20111;-67
2023/07/03 05:04:15;;;;;;;4.97;1.65;;;18.70;81.00;;;;;;10450862;28;20033;-67
2023/07/03 05:09:16;;;;;;;4.05;1.67;;;18.70;81.00;;;;;;10441997;28;20385;-67
2023/07/03 05:14:16;;;;;;;3.40;1.38;;;18.70;81.00;;;;;;10447722;28;20032;-67
2023/07/03 05:19:17;;;;;;;2.92;0.90;;;18.70;81.00;;;;;;10453678;28;20029;-67
2023/07/03 05:24:18;;;;;;;6.15;1.30;;;18.70;80.90;;;;;;10450682;28;20056;-67
2023/07/03 05:29:19;;;;;;;5.80;1.92;;;18.70;80.90;;;;;;10448582;28;20087;-67
2023/07/03 05:34:19;;;;;;;4.20;1.48;;;18.70;80.80;;;;;;10447131;28;20033;-67
2023/07/03 05:39:20;;;;;;;2.80;1.20;;;18.70;80.90;;;;;;10444338;28;20554;-67
2023/07/03 05:44:21;;;;;;;3.20;1.13;;;18.70;80.90;;;;;;10452336;28;20029;-67
2023/07/03 05:49:21;;;;;;;4.90;1.40;;;18.70;80.90;;;;;;10448656;28;20044;-67
2023/07/03 05:54:22;;;;;;;3.97;1.55;;;18.70;80.90;;;;;;10452255;28;20046;-67
2023/07/03 05:59:23;;;;;;;5.30;1.33;;;18.70;80.90;;;;;;10446493;28;20019;-67
2023/07/03 06:04:25;;;;;;;3.97;1.30;;;18.70;81.50;;;;;;10439834;28;20119;-67
2023/07/03 06:09:27;;;;;;;4.15;1.33;;;18.70;80.90;;;;;;10442067;28;20030;-67
2023/07/03 06:14:29;;;;;;;2.70;1.20;;;18.70;80.90;;;;;;10445254;28;20564;-67
2023/07/03 06:19:30;;;;;;;4.60;1.35;;;18.70;80.90;;;;;;10441147;28;20037;-67
2023/07/03 06:24:31;;;;;;;3.97;1.63;;;18.70;80.90;;;;;;10443000;28;20104;-67
2023/07/03 06:29:32;;;;;;;6.88;1.60;;;18.70;80.80;;;;;;10450436;28;20195;-67
2023/07/03 06:34:33;;;;;;;3.92;1.20;;;18.70;80.70;;;;;;10442099;28;20036;-67
2023/07/03 06:39:37;;;;;;;6.25;1.98;;;18.80;80.80;;;;;;10442346;28;20021;-67
2023/07/03 06:44:37;;;;;;;2.80;1.15;;;18.80;80.70;;;;;;10441792;28;20069;-67
2023/07/03 06:49:42;;;;;;;4.85;1.17;;;18.80;80.70;;;;;;10449294;28;20500;-67
2023/07/03 06:54:45;;;;;;;4.70;1.45;;;18.80;80.60;;;;;;10449109;28;20024;-67
2023/07/03 06:59:46;;;;;;;4.57;1.30;;;18.80;80.60;;;;;;10449215;28;20549;-67
2023/07/03 07:04:46;;;;;;;5.97;1.40;;;18.90;80.60;;;;;;10449750;28;20025;-67
2023/07/03 07:09:47;;;;;;;4.28;1.13;;;18.90;80.70;;;;;;10444590;28;20040;-67
2023/07/03 07:14:48;;;;;;;4.75;1.55;;;18.90;80.60;;;;;;10452179;28;20394;-67
2023/07/03 07:19:49;;;;;;;5.28;1.30;;;18.80;80.50;;;;;;10442863;28;20047;-67
2023/07/03 07:24:50;;;;;;;4.22;1.42;;;18.80;80.50;;;;;;10444241;28;20227;-67
2023/07/03 07:29:50;;;;;;;4.22;1.38;;;18.90;80.50;;;;;;10438330;28;20028;-67
2023/07/03 07:34:51;;;;;;;3.95;1.75;;;18.90;80.40;;;;;;10449989;28;20556;-67
2023/07/03 07:39:51;;;;;;;4.28;1.75;;;18.90;80.40;;;;;;10442745;28;20078;-67
2023/07/03 07:44:52;;;;;;;3.80;1.20;;;18.90;80.30;;;;;;10451564;28;20049;-67
2023/07/03 07:49:53;;;;;;;6.63;1.45;;;19.00;80.30;;;;;;10449892;28;20373;-67
2023/07/03 07:54:57;;;;;;;3.65;1.00;;;19.00;80.80;;;;;;10446776;28;20029;-67
2023/07/03 07:59:58;;;;;;;2.45;0.90;;;19.00;80.10;;;;;;10441496;28;20033;-67
2023/07/03 08:04:58;;;;;;;2.72;1.13;;;19.10;80.00;;;;;;10446095;28;20033;-67
2023/07/03 08:09:59;;;;;;;3.25;0.95;;;19.10;80.00;;;;;;10455016;28;20033;-67
2023/07/03 08:15:00;;;;;;;3.60;1.25;;;19.10;79.80;;;;;;10442428;28;20100;-67
2023/07/03 08:20:00;;;;;;;4.38;1.00;;;19.20;79.80;;;;;;10462056;28;20039;-67
2023/07/03 08:25:01;;;;;;;2.80;1.15;;;19.20;79.70;;;;;;10439575;28;20029;-67
2023/07/03 08:30:03;;;;;;;2.10;1.05;;;19.30;79.60;;;;;;10439088;28;20064;-67
2023/07/03 08:35:04;;;;;;;4.18;1.00;;;19.30;79.40;;;;;;10447017;28;20024;-67
2023/07/03 08:40:06;;;;;;;3.38;0.80;;;19.30;79.30;;;;;;10438786;28;20029;-67
2023/07/03 08:45:12;;;;;;;3.38;0.88;;;19.40;79.30;;;;;;10442492;28;20027;-67
2023/07/03 08:50:19;;;;;;;3.72;0.95;;;19.40;79.20;;;;;;10436211;28;20060;-67
2023/07/03 08:55:24;;;;;;;1.87;0.90;;;19.40;79.20;;;;;;10444054;28;20033;-67
2023/07/03 09:00:29;;;;;;;3.42;0.98;;;19.40;79.20;;;;;;10424676;28;20528;-67
2023/07/03 09:05:45;;;;;;;5.03;1.00;;;19.40;79.20;;;;;;10442484;28;20037;-67
2023/07/03 09:10:49;;;;;;;4.63;1.00;;;19.40;79.20;;;;;;10439328;28;20085;-67
2023/07/03 09:16:13;;;;;;;4.47;0.95;;;19.40;79.10;;;;;;10440238;28;20089;-67
2023/07/03 09:21:13;;;;;;;4.43;1.05;;;19.50;79.10;;;;;;10443290;28;20025;-67
2023/07/03 09:26:23;;;;;;;1.83;0.80;;;19.50;79.20;;;;;;10439063;28;20041;-67
2023/07/03 09:31:27;;;;;;;3.63;1.05;;;19.50;79.10;;;;;;10436420;28;20415;-67
2023/07/03 09:36:35;;;;;;;5.90;1.02;;;19.50;79.00;;;;;;10434942;28;20551;-67
2023/07/03 09:41:36;;;;;;;2.60;0.98;;;19.60;79.00;;;;;;10428792;28;20017;-67
2023/07/03 09:46:38;;;;;;;1.98;0.90;;;19.60;78.80;;;;;;10448259;28;20097;-67
2023/07/03 09:51:39;;;;;;;5.10;1.05;;;19.70;78.70;;;;;;10444351;28;20025;-67
2023/07/03 09:56:40;;;;;;;2.92;0.80;;;19.80;78.60;;;;;;10439519;28;20017;-67
2023/07/03 10:01:41;;;;;;;2.80;1.00;;;19.90;78.40;;;;;;10445366;28;20032;-67
2023/07/03 10:06:51;;;;;;;3.58;0.75;;;19.90;78.10;;;;;;10443488;28;20072;-67
2023/07/03 10:12:04;;;;;;;5.97;1.02;;;19.90;78.00;;;;;;10439688;28;20488;-67
2023/07/03 10:17:12;;;;;;;1.83;0.80;;;19.90;77.70;;;;;;10443962;28;20679;-67
2023/07/03 10:22:15;;;;;;;1.33;0.80;;;19.90;77.90;;;;;;10446826;28;20104;-67
2023/07/03 10:27:19;;;;;;;2.10;0.85;;;19.90;77.90;;;;;;10441596;28;20036;-67
2023/07/03 10:32:24;;;;;;;2.35;0.70;;;19.90;77.80;;;;;;10449578;28;20060;-67
2023/07/03 10:37:26;;;;;;;1.98;0.60;;;19.90;77.80;;;;;;10446543;28;20044;-67
2023/07/03 10:42:29;;;;;;;1.92;0.90;;;19.90;77.80;;;;;;10446528;28;20036;-67
2023/07/03 10:47:48;;;;;;;2.95;1.08;;;20.00;77.60;;;;;;10444057;28;20646;-67
2023/07/03 10:53:06;;;;;;;3.00;0.90;;;20.00;77.60;;;;;;10444758;28;20060;-67
2023/07/03 10:58:25;;;;;;;3.38;1.15;;;20.00;77.40;;;;;;10439504;28;20040;-67
2023/07/03 11:03:34;;;;;;;2.40;0.73;;;19.90;77.50;;;;;;10447223;28;20115;-67
2023/07/03 11:08:43;;;;;;;1.48;0.90;;;20.00;77.70;;;;;;10453068;28;20013;-67
2023/07/03 11:14:33;;;;;;;1.50;0.75;;;20.00;77.50;;;;;;10435768;28;20248;-67
2023/07/03 11:20:05;;;;;;;1.80;0.82;;;20.00;77.30;;;;;;10444038;28;20404;-67
2023/07/03 11:25:34;;;;;;;2.33;0.73;;;20.10;77.30;;;;;;10445383;28;20457;-67
2023/07/03 11:30:37;;;;;;;1.67;0.80;;;20.10;77.30;;;;;;10447716;28;20579;-67
2023/07/03 11:35:50;;;;;;;4.75;1.00;;;20.20;77.40;;;;;;10443808;28;20074;-67
2023/07/03 11:40:54;;;;;;;2.40;0.80;;;20.20;77.20;;;;;;10447825;28;20068;-67
2023/07/03 11:45:57;;;;;;;3.60;0.88;;;20.20;77.30;;;;;;10452389;28;20036;-67
2023/07/03 11:51:00;;;;;;;1.73;0.80;;;20.10;77.30;;;;;;10446811;28;20040;-67
2023/07/03 11:56:05;;;;;;;3.72;0.80;;;20.20;77.40;;;;;;10442657;28;20104;-67
2023/07/03 12:01:21;;;;;;;2.63;1.10;;;20.20;77.50;;;;;;10440050;28;20095;-67
2023/07/03 12:06:40;;;;;;;2.13;0.88;;;20.30;77.30;;;;;;10442399;28;20021;-67
2023/07/03 12:12:03;;;;;;;4.32;0.90;;;20.30;77.00;;;;;;10455077;28;20033;-67
2023/07/03 12:17:04;;;;;;;2.78;0.82;;;20.40;76.70;;;;;;10449370;28;20040;-67
2023/07/03 12:22:05;;;;;;;2.67;0.90;;;20.40;77.00;;;;;;10437736;28;20039;-67
2023/07/03 12:27:08;;;;;;;4.68;1.02;;;20.40;77.10;;;;;;10443087;28;20033;-67
2023/07/03 12:32:09;;;;;;;3.47;0.90;;;20.40;77.30;;;;;;10445345;28;20032;-67
2023/07/03 12:37:20;;;;;;;2.35;0.80;;;20.30;77.20;;;;;;10448228;28;20021;-67
2023/07/03 12:42:25;;;;;;;1.73;0.75;;;20.30;77.20;;;;;;10443855;28;20106;-67
2023/07/03 12:47:25;;;;;;;1.77;0.63;;;20.30;77.20;;;;;;10444310;28;20386;-67
2023/07/03 12:52:29;;;;;;;3.97;1.05;;;20.30;77.30;;;;;;10444432;28;20017;-67
2023/07/03 12:57:31;;;;;;;2.30;0.90;;;20.30;77.30;;;;;;10445981;28;20033;-67
2023/07/03 13:02:36;;;;;;;2.45;0.85;;;20.20;77.30;;;;;;10437266;28;20025;-67
2023/07/03 13:07:40;;;;;;;2.72;1.10;;;20.20;77.10;;;;;;10448410;28;20040;-67
2023/07/03 13:12:41;;;;;;;7.25;0.80;;;20.20;77.10;;;;;;10449908;28;20039;-67
2023/07/03 13:17:43;;;;;;;1.98;0.85;;;20.10;77.00;;;;;;10436365;28;20309;-67
2023/07/03 13:22:46;;;;;;;3.40;0.80;;;20.10;77.10;;;;;;10440680;28;20076;-67
2023/07/03 13:27:48;;;;;;;2.42;0.90;;;20.00;77.10;;;;;;10443728;28;20029;-67
2023/07/03 13:33:10;;;;;;;1.63;0.75;;;20.00;77.10;;;;;;10449162;28;20021;-67
2023/07/03 13:38:22;;;;;;;2.33;0.77;;;20.00;76.60;;;;;;10458936;28;20419;-67
2023/07/03 13:43:26;;;;;;;2.78;0.80;;;20.00;76.80;;;;;;10457734;28;20387;-67
2023/07/03 13:48:27;;;;;;;1.65;0.90;;;19.90;77.00;;;;;;10456453;28;20621;-67
2023/07/03 13:53:28;;;;;;;1.77;0.70;;;19.90;77.20;;;;;;10452885;28;20104;-67
2023/07/03 13:58:29;;;;;;;2.10;0.80;;;19.80;77.20;;;;;;10457810;28;20021;-67
2023/07/03 14:03:29;;;;;;;2.85;0.90;;;19.80;77.30;;;;;;10441031;28;20020;-66
2023/07/03 14:08:30;;;;;;;2.33;0.80;;;19.80;77.30;;;;;;10452681;28;20468;-66
2023/07/03 14:13:31;;;;;;;2.70;0.90;;;19.80;77.40;;;;;;10455139;28;20108;-65
2023/07/03 14:18:32;;;;;;;1.67;0.70;;;19.80;77.40;;;;;;10460026;28;20013;-66
2023/07/03 14:23:33;;;;;;;1.67;0.85;;;19.80;77.50;;;;;;10454551;28;20424;-66
2023/07/03 14:28:34;;;;;;;1.65;0.80;;;19.70;77.50;;;;;;10447144;28;20079;-66
2023/07/03 14:33:35;;;;;;;2.58;1.15;;;19.70;77.60;;;;;;10435917;28;20555;-67
2023/07/03 14:38:35;;;;;;;1.65;0.75;;;19.70;77.70;;;;;;10437033;28;20565;-67
2023/07/03 14:43:36;;;;;;;2.55;0.90;;;19.70;77.70;;;;;;10443693;28;20024;-67
2023/07/03 14:48:37;;;;;;;1.77;0.70;;;19.70;77.80;;;;;;10438092;28;20029;-66
2023/07/03 14:53:37;;;;;;;5.35;0.90;;;19.60;78.40;;;;;;10445141;28;20017;-66
2023/07/03 14:58:38;;;;;;;4.43;1.10;;;19.70;77.70;;;;;;10441709;28;20029;-67
2023/07/03 15:03:38;;;;;;;1.48;0.75;;;19.80;77.50;;;;;;10439484;28;20086;-66
2023/07/03 15:08:39;;;;;;;5.57;0.80;;;19.80;77.50;;;;;;10446477;28;20036;-66
2023/07/03 15:13:39;;;;;;;1.95;0.70;;;19.80;77.50;;;;;;10453005;28;20039;-66
2023/07/03 15:18:40;;;;;;;0.73;0.70;;;19.50;77.40;;;;;;10442613;28;20160;-65
2023/07/03 15:23:41;;;;;;;3.72;1.15;;;19.80;77.50;;;;;;10436272;28;20549;-66
2023/07/03 15:28:41;;;;;;;3.53;1.00;;;19.80;77.60;;;;;;10444842;28;20103;-66
2023/07/03 15:33:42;;;;;;;2.47;0.98;;;19.70;77.60;;;;;;10449841;28;20029;-66
2023/07/03 15:38:43;;;;;;;3.38;0.80;;;19.70;78.20;;;;;;10444238;28;20071;-66
2023/07/03 15:43:43;;;;;;;1.50;0.88;;;19.70;77.60;;;;;;10452250;28;20021;-66
2023/07/03 15:48:47;;;;;;;3.95;1.10;;;19.80;77.50;;;;;;10445325;28;20412;-66
2023/07/03 15:53:47;;;;;;;2.03;0.98;;;19.80;77.30;;;;;;10450521;28;20028;-67
2023/07/03 15:58:52;;;;;;;2.03;0.90;;;19.90;77.20;;;;;;10437390;28;20566;-67
2023/07/03 16:03:55;;;;;;;3.80;0.93;;;20.00;76.90;;;;;;10445874;28;20025;-65
2023/07/03 16:08:57;;;;;;;3.22;1.20;;;20.00;76.80;;;;;;10447298;28;20024;-66
2023/07/03 16:13:58;;;;;;;4.13;1.25;;;20.10;76.70;;;;;;10454888;28;20016;-66
2023/07/03 16:19:02;;;;;;;4.78;1.05;;;20.10;76.50;;;;;;10446808;28;20027;-66
2023/07/03 16:24:06;;;;;;;3.85;0.98;;;20.10;76.30;;;;;;10446524;28;20037;-67
2023/07/03 16:29:08;;;;;;;3.60;1.05;;;20.10;76.30;;;;;;10441129;28;20056;-67
2023/07/03 16:34:09;;;;;;;2.10;1.00;;;20.00;76.30;;;;;;10435303;28;20025;-67
2023/07/03 16:39:09;;;;;;;6.30;1.20;;;20.00;76.30;;;;;;10441129;28;20032;-67
2023/07/03 16:44:10;;;;;;;4.30;1.30;;;20.00;76.30;;;;;;10438313;28;20456;-67
2023/07/03 16:49:11;;;;;;;3.00;1.15;;;20.00;76.30;;;;;;10442911;28;20033;-67
2023/07/03 16:54:11;;;;;;;2.80;1.02;;;20.00;76.40;;;;;;10448071;28;20120;-66
2023/07/03 16:59:12;;;;;;;4.32;1.10;;;19.90;76.30;;;;;;10442642;28;20039;-66
2023/07/03 17:04:13;;;;;;;3.10;1.30;;;19.90;76.30;;;;;;10446799;28;20088;-66
2023/07/03 17:09:18;;;;;;;2.53;0.68;;;19.80;76.40;;;;;;10432816;28;20024;-64
2023/07/03 17:14:19;;;;;;;2.33;1.02;;;19.80;76.40;;;;;;10453486;28;20033;-66
2023/07/03 17:19:20;;;;;;;1.88;0.77;;;19.80;76.50;;;;;;10451707;28;20017;-66
2023/07/03 17:24:21;;;;;;;4.35;1.05;;;19.80;76.50;;;;;;10455345;28;20032;-65
2023/07/03 17:29:21;;;;;;;3.45;1.10;;;19.80;76.50;;;;;;10452738;28;20029;-67
2023/07/03 17:34:22;;;;;;;2.88;1.10;;;19.80;76.60;;;;;;10457661;28;20028;-65
2023/07/03 17:39:22;;;;;;;4.78;1.33;;;19.70;76.60;;;;;;10459059;28;20032;-65
2023/07/03 17:44:23;;;;;;;1.98;1.00;;;19.80;76.70;;;;;;10455319;28;20108;-66
2023/07/03 17:49:24;;;;;;;3.45;1.25;;;19.70;76.80;;;;;;10449967;28;20104;-66
2023/07/03 17:54:24;;;;;;;3.72;1.10;;;19.70;76.80;;;;;;10462803;28;20013;-67
2023/07/03 17:59:25;;;;;;;3.42;1.05;;;19.60;76.90;;;;;;10459589;28;20556;-66
2023/07/03 18:04:26;;;;;;;3.03;1.30;;;19.70;77.00;;;;;;10453267;28;20267;-65
2023/07/03 18:09:26;;;;;;;2.78;1.20;;;19.60;77.00;;;;;;10462012;28;20025;-66
2023/07/03 18:14:28;;;;;;;3.25;1.10;;;19.60;77.10;;;;;;10451536;28;20095;-65
2023/07/03 18:19:29;;;;;;;4.30;1.48;;;19.60;77.10;;;;;;10444464;28;20516;-65
2023/07/03 18:24:30;;;;;;;4.07;1.05;;;19.60;77.10;;;;;;10457910;28;20112;-66
2023/07/03 18:29:31;;;;;;;3.05;1.23;;;19.60;77.20;;;;;;10441410;28;20040;-65
2023/07/03 18:34:31;;;;;;;4.82;1.33;;;19.50;77.20;;;;;;10462569;28;20021;-66
2023/07/03 18:39:32;;;;;;;2.85;1.20;;;19.50;77.20;;;;;;10453406;28;20035;-65
2023/07/03 18:44:33;;;;;;;2.90;1.48;;;19.50;77.30;;;;;;10448410;28;20112;-66
2023/07/03 18:49:34;;;;;;;3.55;1.42;;;19.50;77.30;;;;;;10442204;28;20396;-66
2023/07/03 18:54:34;;;;;;;4.75;1.30;;;19.50;77.30;;;;;;10442753;28;20584;-66
2023/07/03 18:59:38;;;;;;;2.80;1.30;;;19.50;77.40;;;;;;10444513;28;20047;-66
2023/07/03 19:04:39;;;;;;;5.97;1.60;;;19.40;77.30;;;;;;10439962;28;20029;-66
2023/07/03 19:09:39;;;;;;;4.35;1.20;;;19.40;77.40;;;;;;10433667;28;20017;-64
2023/07/03 19:14:40;;;;;;;2.38;1.17;;;19.40;78.10;;;;;;10442955;28;20028;-65
2023/07/03 19:19:40;;;;;;;4.78;1.58;;;19.40;77.60;;;;;;10448069;28;20031;-66
2023/07/03 19:24:42;;;;;;;5.10;1.50;;;19.40;77.80;;;;;;10440583;28;20087;-67
2023/07/03 19:29:42;;;;;;;4.53;1.40;;;19.30;78.10;;;;;;10435250;28;20017;-67
2023/07/03 19:34:44;;;;;;;5.32;1.73;;;19.30;78.50;;;;;;10448356;28;20030;-66
2023/07/03 19:39:45;;;;;;;3.40;1.70;;;19.30;78.80;;;;;;10442334;28;20036;-66
2023/07/03 19:44:46;;;;;;;4.95;1.83;;;19.30;79.10;;;;;;10451284;28;20024;-66
2023/07/03 19:49:46;;;;;;;3.10;1.63;;;19.20;79.30;;;;;;10445173;28;20040;-66
2023/07/03 19:54:48;;;;;;;3.60;1.50;;;19.20;79.50;;;;;;10432069;28;20017;-66
2023/07/03 19:59:52;;;;;;;6.03;1.80;;;19.20;79.70;;;;;;10444006;28;20435;-66
2023/07/03 20:04:53;;;;;;;5.32;1.58;;;19.10;79.90;;;;;;10437173;28;20018;-67
2023/07/03 20:09:53;;;;;;;5.95;1.77;;;19.10;80.10;;;;;;10434857;28;20021;-66
2023/07/03 20:14:54;;;;;;;3.33;1.42;;;19.10;80.20;;;;;;10444187;28;20529;-66
2023/07/03 20:19:55;;;;;;;6.05;2.28;;;19.00;80.30;;;;;;10439055;28;20032;-67
2023/07/03 20:24:55;;;;;;;6.90;1.90;;;19.00;80.40;;;;;;10439512;28;20390;-66
2023/07/03 20:29:56;;;;;;;4.15;1.20;;;19.00;80.50;;;;;;10434849;28;20038;-66
2023/07/03 20:34:57;;;;;;;4.60;1.52;;;19.00;80.60;;;;;;10436904;28;20029;-66
2023/07/03 20:39:58;;;;;;;2.05;1.00;;;18.90;80.60;;;;;;10442177;28;20048;-66
2023/07/03 20:45:00;;;;;;;3.50;1.50;;;18.90;80.70;;;;;;10436531;28;20135;-65
2023/07/03 20:50:01;;;;;;;2.97;1.50;;;18.90;80.80;;;;;;10446792;28;20447;-65
2023/07/03 20:55:11;;;;;;;5.32;1.55;;;18.90;80.80;;;;;;10427905;28;20021;-66
2023/07/03 21:00:12;;;;;;;3.67;1.40;;;18.90;81.00;;;;;;10434091;28;20088;-66
2023/07/03 21:05:13;;;;;;;5.22;1.23;;;18.90;81.00;;;;;;10429178;28;20028;-66
2023/07/03 21:10:14;;;;;;;6.47;1.67;;;18.80;81.00;;;;;;10440066;28;20017;-67
2023/07/03 21:15:15;;;;;;;3.53;1.50;;;18.90;81.20;;;;;;10443376;28;20021;-65
2023/07/03 21:20:16;;;;;;;3.38;1.48;;;18.80;81.20;;;;;;10444688;28;20027;-66
2023/07/03 21:25:16;;;;;;;4.53;1.75;;;18.80;81.30;;;;;;10434458;28;20044;-66
2023/07/03 21:30:17;;;;;;;3.35;1.20;;;18.80;81.40;;;;;;10439721;28;20037;-65
2023/07/03 21:35:18;;;;;;;4.15;1.65;;;18.80;81.50;;;;;;10439961;28;20024;-66
2023/07/03 21:40:18;;;;;;;4.80;1.50;;;18.80;81.60;;;;;;10432073;28;20429;-66
2023/07/03 21:45:19;;;;;;;5.13;1.42;;;18.70;81.60;;;;;;10437509;28;20020;-66
2023/07/03 21:50:20;;;;;;;3.15;1.20;;;18.70;81.70;;;;;;10437606;28;20071;-66
2023/07/03 21:55:21;;;;;;;5.68;1.55;;;18.70;81.70;;;;;;10439340;28;20208;-66
2023/07/03 22:00:22;;;;;;;3.95;1.20;;;18.70;81.80;;;;;;10449125;28;20031;-65
2023/07/03 22:05:23;;;;;;;2.00;1.10;;;18.70;81.80;;;;;;10442012;28;20039;-66
2023/07/03 22:10:24;;;;;;;4.03;1.88;;;18.60;81.80;;;;;;10442655;28;20035;-65
2023/07/03 22:15:24;;;;;;;5.72;1.20;;;18.60;81.90;;;;;;10454295;28;20017;-66
2023/07/03 22:20:25;;;;;;;3.42;1.25;;;18.60;81.90;;;;;;10446327;28;20073;-65
2023/07/03 22:25:25;;;;;;;3.53;1.50;;;18.60;81.90;;;;;;10435185;28;20436;-66
2023/07/03 22:30:26;;;;;;;5.35;1.30;;;18.60;82.00;;;;;;10446250;28;20017;-66
2023/07/03 22:35:27;;;;;;;3.13;1.30;;;18.60;82.00;;;;;;10441747;28;20052;-66
2023/07/03 22:40:27;;;;;;;3.72;1.38;;;18.60;82.10;;;;;;10446322;28;20017;-66
2023/07/03 22:45:28;;;;;;;5.38;1.08;;;18.50;82.10;;;;;;10438986;28;20094;-65
2023/07/03 22:50:29;;;;;;;2.80;1.20;;;18.50;82.70;;;;;;10437713;28;20021;-67
2023/07/03 22:55:29;;;;;;;2.45;1.20;;;18.50;82.20;;;;;;10447425;28;20667;-67
2023/07/03 23:00:30;;;;;;;5.60;1.50;;;18.50;82.30;;;;;;10436762;28;20108;-67
2023/07/03 23:05:30;;;;;;;5.07;1.52;;;18.40;82.30;;;;;;10444649;28;20021;-65
2023/07/03 23:10:32;;;;;;;2.97;1.15;;;18.40;82.40;;;;;;10448903;28;20125;-66
2023/07/03 23:15:32;;;;;;;5.70;1.30;;;18.40;82.50;;;;;;10445012;28;20067;-66
2023/07/03 23:20:33;;;;;;;1.73;1.20;;;18.50;82.60;;;;;;10449101;28;20124;-67
2023/07/03 23:25:34;;;;;;;4.35;1.10;;;18.40;82.70;;;;;;10442341;28;20032;-66
2023/07/03 23:30:35;;;;;;;4.35;1.38;;;18.40;82.70;;;;;;10446854;28;20029;-66
2023/07/03 23:35:38;;;;;;;6.97;1.55;;;18.40;82.80;;;;;;10440833;28;20016;-66
2023/07/03 23:40:39;;;;;;;1.85;1.10;;;18.40;82.90;;;;;;10443277;28;20033;-66
2023/07/03 23:45:43;;;;;;;3.63;1.38;;;18.30;82.80;;;;;;10451756;28;20463;-66
2023/07/03 23:50:53;;;;;;;3.00;1.10;;;18.30;82.90;;;;;;10442217;28;20043;-67
2023/07/03 23:55:55;;;;;;;4.47;1.20;;;18.30;83.10;;;;;;10429440;28;20364;-67
